createdAt,value
2019-04-01T00:01:16.373Z,21.20
2019-04-01T00:03:45.900Z,22.07
2019-04-01T00:06:14.739Z,22.63
2019-04-01T00:08:43.587Z,20.97
2019-04-01T00:11:12.434Z,21.40
2019-04-01T00:13:41.278Z,23.30
2019-04-01T00:16:10.118Z,20.83
2019-04-01T00:18:38.959Z,20.20
2019-04-01T00:21:07.799Z,20.80
2019-04-01T00:23:36.630Z,20.47
2019-04-01T00:26:05.476Z,20.57
2019-04-01T00:28:34.307Z,23.75
2019-04-01T00:31:03.153Z,20.73
2019-04-01T00:33:31.992Z,19.87
2019-04-01T00:36:00.836Z,20.07
2019-04-01T00:38:29.681Z,20.93
2019-04-01T00:40:58.510Z,21.90
2019-04-01T00:43:27.444Z,20.93
2019-04-01T00:45:56.288Z,22.30
2019-04-01T00:48:25.129Z,24.58
2019-04-01T00:50:54.842Z,22.67
2019-04-01T00:53:23.633Z,23.60
2019-04-01T00:55:53.213Z,21.73
2019-04-01T00:58:22.053Z,25.50
2019-04-01T01:00:50.892Z,22.43
2019-04-01T01:03:19.736Z,20.53
2019-04-01T01:05:48.571Z,22.00
2019-04-01T01:08:17.412Z,22.03
2019-04-01T01:10:46.259Z,25.35
2019-04-01T01:13:15.108Z,21.87
2019-04-01T01:15:43.942Z,20.20
2019-04-01T01:18:12.786Z,21.50
2019-04-01T01:20:41.661Z,23.60
2019-04-01T01:23:10.499Z,20.73
2019-04-01T01:25:39.340Z,19.97
2019-04-01T01:28:08.174Z,22.47
2019-04-01T01:30:37.076Z,23.43
2019-04-01T01:33:05.850Z,21.60
2019-04-01T01:35:34.670Z,22.67
2019-04-01T01:38:03.513Z,19.90
2019-04-01T01:40:32.348Z,21.77
2019-04-01T01:43:01.189Z,22.93
2019-04-01T01:45:30.014Z,21.07
2019-04-01T01:47:59.600Z,22.20
2019-04-01T01:50:28.442Z,24.85
2019-04-01T01:52:57.286Z,23.03
2019-04-01T01:55:26.704Z,21.83
2019-04-01T01:57:55.540Z,22.47
2019-04-01T02:00:24.379Z,22.63
2019-04-01T02:02:53.224Z,23.17
2019-04-01T02:05:22.074Z,24.80
2019-04-01T02:07:50.900Z,24.50
2019-04-01T02:10:19.730Z,22.17
2019-04-01T02:12:48.655Z,20.83
2019-04-01T02:15:17.418Z,21.80
2019-04-01T02:17:46.308Z,21.33
2019-04-01T02:20:15.098Z,22.43
2019-04-01T02:22:43.935Z,21.60
2019-04-01T02:25:12.768Z,22.67
2019-04-01T02:27:42.344Z,23.17
2019-04-01T02:30:11.180Z,23.07
2019-04-01T02:32:40.024Z,23.27
2019-04-01T02:35:08.858Z,23.07
2019-04-01T02:37:37.700Z,24.00
2019-04-01T02:40:06.546Z,23.67
2019-04-01T02:42:35.396Z,25.47
2019-04-01T02:45:04.235Z,25.13
2019-04-01T02:47:33.075Z,24.50
2019-04-01T02:50:02.671Z,36.20
2019-04-01T02:52:31.506Z,40.38
2019-04-01T02:55:00.611Z,28.83
2019-04-01T02:57:29.935Z,25.47
2019-04-01T02:59:58.772Z,25.77
2019-04-01T03:02:27.619Z,24.73
2019-04-01T03:04:56.442Z,26.27
2019-04-01T03:07:26.056Z,26.17
2019-04-01T03:09:54.925Z,24.93
2019-04-01T03:12:23.740Z,25.00
2019-04-01T03:14:52.572Z,26.10
2019-04-01T03:17:21.406Z,26.30
2019-04-01T03:19:50.988Z,26.00
2019-04-01T03:22:19.825Z,25.83
2019-04-01T03:24:48.665Z,25.47
2019-04-01T03:27:17.791Z,26.90
2019-04-01T03:29:46.387Z,29.20
2019-04-01T03:32:15.201Z,26.47
2019-04-01T03:34:44.033Z,27.57
2019-04-01T03:37:13.641Z,26.47
2019-04-01T03:39:43.217Z,28.47
2019-04-01T03:42:12.116Z,30.17
2019-04-01T03:44:40.925Z,26.90
2019-04-01T03:47:09.759Z,26.27
2019-04-01T03:49:38.596Z,24.97
2019-04-01T03:52:10.267Z,26.17
2019-04-01T03:54:36.283Z,31.40
2019-04-01T03:57:05.148Z,27.33
2019-04-01T03:59:33.982Z,26.73
2019-04-01T04:02:02.862Z,27.90
2019-04-01T04:04:32.261Z,28.00
2019-04-01T04:07:01.116Z,28.60
2019-04-01T04:09:29.953Z,29.03
2019-04-01T04:11:58.802Z,28.07
2019-04-01T04:14:27.657Z,27.97
2019-04-01T04:16:56.495Z,27.57
2019-04-01T04:19:25.340Z,29.23
2019-04-01T04:21:54.239Z,31.53
2019-04-01T04:24:23.759Z,27.80
2019-04-01T04:26:52.595Z,27.03
2019-04-01T04:29:21.433Z,26.43
2019-04-01T04:31:50.270Z,26.77
2019-04-01T04:34:19.115Z,26.50
2019-04-01T04:36:47.961Z,26.27
2019-04-01T04:39:16.815Z,27.03
2019-04-01T04:41:45.636Z,26.83
2019-04-01T04:44:14.495Z,26.33
2019-04-01T04:46:43.332Z,25.83
2019-04-01T04:49:12.163Z,28.70
2019-04-01T04:51:41.741Z,26.40
2019-04-01T04:54:10.590Z,25.30
2019-04-01T04:56:39.436Z,26.03
2019-04-01T04:59:08.285Z,27.30
2019-04-01T05:01:37.126Z,26.37
2019-04-01T05:04:05.954Z,27.37
2019-04-01T05:06:34.795Z,26.93
2019-04-01T05:09:03.625Z,27.17
2019-04-01T05:11:32.464Z,25.73
2019-04-01T05:14:01.329Z,27.03
2019-04-01T05:16:30.164Z,26.33
2019-04-01T05:18:59.776Z,26.57
2019-04-01T05:21:28.676Z,29.67
2019-04-01T05:23:58.271Z,30.08
2019-04-01T05:26:27.857Z,27.77
2019-04-01T05:28:56.750Z,30.52
2019-04-01T05:31:25.595Z,25.77
2019-04-01T05:33:55.994Z,27.40
2019-04-01T05:36:23.990Z,27.00
2019-04-01T05:38:52.853Z,27.47
2019-04-01T05:41:22.458Z,25.13
2019-04-01T05:43:51.314Z,24.90
2019-04-01T05:46:20.144Z,25.50
2019-04-01T05:48:48.978Z,25.27
2019-04-01T05:51:17.808Z,26.03
2019-04-01T05:53:46.662Z,25.80
2019-04-01T05:56:15.520Z,29.97
2019-04-01T05:58:44.380Z,30.27
2019-04-01T06:01:13.249Z,31.12
2019-04-01T06:03:42.049Z,26.60
2019-04-01T06:06:11.643Z,27.27
2019-04-01T06:08:40.495Z,25.87
2019-04-01T06:11:09.334Z,26.20
2019-04-01T06:13:38.192Z,27.90
2019-04-01T06:16:07.080Z,31.27
2019-04-01T06:18:35.880Z,30.02
2019-04-01T06:21:04.717Z,29.95
2019-04-01T06:23:33.567Z,27.53
2019-04-01T06:26:02.414Z,27.97
2019-04-01T06:28:31.243Z,31.27
2019-04-01T06:31:00.084Z,28.27
2019-04-01T06:33:28.938Z,30.63
2019-04-01T06:35:57.773Z,27.17
2019-04-01T06:38:26.617Z,25.57
2019-04-01T06:40:56.214Z,27.40
2019-04-01T06:43:25.069Z,31.30
2019-04-01T06:45:53.914Z,29.60
2019-04-01T06:48:22.757Z,25.43
2019-04-01T06:50:51.608Z,25.73
2019-04-01T06:53:20.447Z,25.77
2019-04-01T06:55:49.281Z,27.07
2019-04-01T06:58:18.145Z,26.40
2019-04-01T07:00:47.728Z,25.10
2019-04-01T07:03:18.713Z,25.43
2019-04-01T07:05:45.981Z,25.13
2019-04-01T07:08:14.822Z,24.87
2019-04-01T07:10:43.734Z,25.07
2019-04-01T07:13:12.545Z,27.07
2019-04-01T07:15:41.381Z,25.93
2019-04-01T07:18:10.225Z,25.73
2019-04-01T07:20:39.057Z,25.07
2019-04-01T07:23:07.887Z,25.70
2019-04-01T07:25:36.775Z,24.90
2019-04-01T07:28:05.586Z,25.27
2019-04-01T07:30:34.491Z,24.63
2019-04-01T07:33:03.354Z,23.50
2019-04-01T07:35:32.186Z,24.47
2019-04-01T07:38:01.047Z,23.87
2019-04-01T07:40:29.889Z,24.17
2019-04-01T07:42:59.483Z,24.37
2019-04-01T07:45:28.318Z,26.87
2019-04-01T07:47:57.164Z,26.92
2019-04-01T07:50:26.005Z,23.63
2019-04-01T07:52:55.560Z,22.83
2019-04-01T07:55:23.690Z,23.40
2019-04-01T07:57:52.528Z,23.00
2019-04-01T08:00:21.462Z,23.80
2019-04-01T08:02:50.220Z,24.73
2019-04-01T08:05:19.065Z,25.30
2019-04-01T08:07:47.929Z,24.30
2019-04-01T08:10:16.777Z,24.50
2019-04-01T08:12:45.640Z,24.60
2019-04-01T08:15:14.474Z,25.23
2019-04-01T08:17:43.326Z,23.23
2019-04-01T08:20:12.175Z,26.07
2019-04-01T08:22:43.292Z,25.02
2019-04-01T08:25:10.616Z,22.67
2019-04-01T08:27:39.470Z,22.83
2019-04-01T08:30:08.347Z,22.83
2019-04-01T08:32:37.199Z,22.33
2019-04-01T08:35:06.133Z,23.10
2019-04-01T08:37:34.905Z,24.10
2019-04-01T08:40:03.770Z,23.13
2019-04-01T08:42:32.615Z,24.17
2019-04-01T08:45:01.454Z,24.30
2019-04-01T08:47:31.043Z,23.27
2019-04-01T08:49:59.893Z,23.87
2019-04-01T08:52:28.743Z,25.65
2019-04-01T08:54:57.606Z,23.13
2019-04-01T08:57:26.467Z,22.57
2019-04-01T08:59:56.471Z,23.17
2019-04-01T09:02:24.891Z,23.30
2019-04-01T09:04:53.749Z,22.50
2019-04-01T09:07:22.606Z,24.27
2019-04-01T09:09:51.455Z,24.40
2019-04-01T09:12:20.330Z,22.90
2019-04-01T09:14:49.164Z,21.83
2019-04-01T09:17:18.743Z,23.20
2019-04-01T09:19:47.583Z,23.30
2019-04-01T09:22:16.431Z,22.60
2019-04-01T09:24:46.031Z,22.57
2019-04-01T09:27:14.867Z,22.03
2019-04-01T09:29:43.713Z,24.25
2019-04-01T09:32:13.344Z,21.13
2019-04-01T09:34:42.181Z,21.83
2019-04-01T09:37:11.057Z,20.50
2019-04-01T09:39:39.870Z,21.10
2019-04-01T09:42:08.718Z,21.40
2019-04-01T09:44:37.565Z,19.37
2019-04-01T09:47:06.977Z,20.60
2019-04-01T09:49:36.569Z,19.83
2019-04-01T09:52:06.152Z,19.00
2019-04-01T09:54:35.031Z,22.10
2019-04-01T09:57:16.613Z,19.70
2019-04-01T09:59:32.695Z,19.83
2019-04-01T10:02:01.541Z,19.03
2019-04-01T10:04:31.133Z,18.93
2019-04-01T10:06:59.993Z,19.10
2019-04-01T10:09:28.850Z,20.30
2019-04-01T10:11:57.709Z,19.17
2019-04-01T10:14:27.297Z,18.60
2019-04-01T10:16:56.144Z,20.85
2019-04-01T10:19:25.006Z,21.40
2019-04-01T10:21:53.850Z,21.70
2019-04-01T10:24:22.679Z,20.67
2019-04-01T10:26:52.277Z,19.87
2019-04-01T10:29:21.158Z,18.77
2019-04-01T10:31:49.958Z,18.53
2019-04-01T10:34:18.826Z,19.23
2019-04-01T10:36:47.664Z,19.17
2019-04-01T10:39:16.500Z,19.47
2019-04-01T10:41:45.408Z,20.03
2019-04-01T10:44:14.208Z,19.07
2019-04-01T10:46:43.855Z,17.83
2019-04-01T10:49:12.693Z,20.10
2019-04-01T10:51:41.521Z,18.17
2019-04-01T10:54:10.340Z,18.20
2019-04-01T10:56:39.255Z,19.03
2019-04-01T10:59:08.798Z,18.03
2019-04-01T11:01:37.726Z,20.90
2019-04-01T11:04:06.561Z,20.08
2019-04-01T11:06:36.051Z,18.60
2019-04-01T11:09:04.991Z,19.00
2019-04-01T11:11:33.747Z,17.27
2019-04-01T11:14:02.609Z,18.50
2019-04-01T11:16:31.937Z,20.33
2019-04-01T11:19:00.303Z,18.60
2019-04-01T11:21:29.167Z,17.47
2019-04-01T11:23:58.022Z,19.80
2019-04-01T11:26:26.855Z,19.07
2019-04-01T11:28:55.712Z,18.73
2019-04-01T11:31:24.597Z,17.50
2019-04-01T11:33:53.498Z,18.43
2019-04-01T11:36:22.297Z,17.20
2019-04-01T11:38:51.876Z,18.40
2019-04-01T11:41:20.737Z,17.40
2019-04-01T11:43:49.551Z,19.23
2019-04-01T11:46:18.404Z,19.50
2019-04-01T11:48:47.243Z,17.17
2019-04-01T11:51:31.187Z,17.60
2019-04-01T11:53:44.943Z,18.67
2019-04-01T11:56:13.805Z,18.30
2019-04-01T11:58:42.654Z,18.98
2019-04-01T12:01:11.504Z,18.63
2019-04-01T12:03:40.389Z,18.40
2019-04-01T12:06:09.251Z,18.80
2019-04-01T12:08:38.089Z,16.13
2019-04-01T12:11:06.931Z,17.17
2019-04-01T12:13:35.771Z,17.70
2019-04-01T12:16:04.760Z,17.20
2019-04-01T12:18:33.468Z,17.23
2019-04-01T12:21:03.060Z,17.60
2019-04-01T12:23:32.542Z,17.43
2019-04-01T12:26:14.422Z,17.97
2019-04-01T12:28:30.225Z,17.67
2019-04-01T12:30:59.083Z,17.97
2019-04-01T12:33:27.921Z,17.40
2019-04-01T12:36:11.175Z,16.93
2019-04-01T12:38:29.691Z,17.13
2019-04-01T12:40:58.541Z,17.30
2019-04-01T12:43:27.386Z,17.07
2019-04-01T12:45:56.246Z,16.63
2019-04-01T12:48:25.592Z,18.60
2019-04-01T12:50:53.947Z,18.03
2019-04-01T12:53:22.774Z,17.07
2019-04-01T12:55:51.612Z,16.27
2019-04-01T12:58:24.961Z,17.33
2019-04-01T13:00:51.598Z,16.00
2019-04-01T13:03:19.987Z,17.13
2019-04-01T13:05:48.709Z,17.20
2019-04-01T13:08:17.574Z,16.43
2019-04-01T13:10:46.439Z,15.13
2019-04-01T13:13:15.728Z,16.10
2019-04-01T13:15:44.869Z,16.03
2019-04-01T13:18:13.720Z,16.43
2019-04-01T13:20:42.574Z,17.53
2019-04-01T13:23:11.447Z,16.33
2019-04-01T13:25:40.304Z,17.70
2019-04-01T13:28:09.148Z,16.87
2019-04-01T13:30:38.012Z,15.40
2019-04-01T13:33:06.863Z,15.60
2019-04-01T13:35:35.721Z,16.10
2019-04-01T13:38:04.581Z,14.17
2019-04-01T13:40:33.434Z,13.30
2019-04-01T13:43:04.646Z,13.40
2019-04-01T13:45:31.873Z,13.40
2019-04-01T13:47:59.953Z,13.20
2019-04-01T13:50:28.804Z,12.47
2019-04-01T13:52:57.633Z,12.63
2019-04-01T13:55:26.485Z,13.07
2019-04-01T13:57:55.327Z,13.90
2019-04-01T14:00:27.348Z,13.00
2019-04-01T14:02:53.744Z,14.52
2019-04-01T14:05:22.601Z,12.90
2019-04-01T14:07:51.439Z,12.32
2019-04-01T14:10:21.031Z,12.23
2019-04-01T14:12:49.874Z,13.03
2019-04-01T14:15:18.735Z,11.23
2019-04-01T14:17:47.564Z,13.65
2019-04-01T14:20:16.415Z,14.27
2019-04-01T14:22:45.273Z,15.00
2019-04-01T14:25:14.477Z,12.95
2019-04-01T14:27:42.973Z,11.95
2019-04-01T14:30:11.834Z,12.75
2019-04-01T14:32:41.408Z,12.18
2019-04-01T14:35:10.263Z,12.88
2019-04-01T14:37:39.899Z,12.30
2019-04-01T14:40:09.076Z,12.02
2019-04-01T14:42:39.527Z,12.27
2019-04-01T14:45:06.390Z,12.00
2019-04-01T14:47:35.966Z,12.02
2019-04-01T14:50:07.717Z,12.25
2019-04-01T14:52:33.680Z,12.35
2019-04-01T14:55:03.263Z,11.98
2019-04-01T14:57:32.105Z,12.88
2019-04-01T15:00:00.949Z,13.80
2019-04-01T15:02:30.541Z,11.43
2019-04-01T15:04:59.403Z,12.10
2019-04-01T15:07:28.252Z,12.55
2019-04-01T15:09:57.118Z,11.73
2019-04-01T15:12:25.970Z,12.40
2019-04-01T15:14:54.800Z,12.15
2019-04-01T15:17:23.741Z,11.52
2019-04-01T15:19:52.492Z,12.80
2019-04-01T15:22:22.718Z,11.85
2019-04-01T15:24:50.194Z,12.43
2019-04-01T15:27:22.390Z,13.10
2019-04-01T15:29:48.642Z,13.88
2019-04-01T15:32:17.483Z,15.23
2019-04-01T15:34:46.333Z,14.90
2019-04-01T15:37:15.177Z,13.93
2019-04-01T15:39:47.014Z,14.63
2019-04-01T15:42:14.118Z,14.85
2019-04-01T15:44:41.691Z,14.98
2019-04-01T15:47:10.559Z,14.43
2019-04-01T15:49:40.215Z,13.73
2019-04-01T15:52:08.231Z,13.90
2019-04-01T15:54:37.815Z,14.25
2019-04-01T15:57:06.652Z,15.30
2019-04-01T15:59:35.486Z,15.15
2019-04-01T16:02:04.360Z,14.85
2019-04-01T16:04:33.211Z,13.95
2019-04-01T16:07:02.027Z,14.63
2019-04-01T16:09:30.861Z,13.43
2019-04-01T16:12:00.452Z,14.25
2019-04-01T16:14:29.307Z,15.00
2019-04-01T16:16:58.174Z,15.38
2019-04-01T16:19:29.136Z,15.02
2019-04-01T16:21:56.633Z,14.40
2019-04-01T16:24:25.573Z,14.23
2019-04-01T16:26:54.410Z,13.07
2019-04-01T16:29:23.219Z,13.18
2019-04-01T16:31:55.206Z,13.30
2019-04-01T16:34:20.969Z,12.13
2019-04-01T16:39:11.049Z,12.35
2019-04-01T16:41:39.908Z,13.73
2019-04-01T16:44:09.486Z,12.52
2019-04-01T16:46:38.330Z,11.15
2019-04-01T16:49:07.725Z,13.52
2019-04-01T16:51:36.018Z,12.52
2019-04-01T16:54:04.857Z,12.75
2019-04-01T16:56:34.464Z,12.05
2019-04-01T16:59:03.316Z,12.13
2019-04-01T17:01:32.174Z,12.65
2019-04-01T17:04:01.025Z,13.07
2019-04-01T17:06:29.881Z,12.63
2019-04-01T17:08:58.741Z,11.57
2019-04-01T17:11:27.577Z,11.57
2019-04-01T17:13:56.430Z,11.73
2019-04-01T17:16:25.294Z,12.40
2019-04-01T17:18:57.508Z,12.03
2019-04-01T17:21:22.983Z,13.43
2019-04-01T17:23:52.563Z,12.10
2019-04-01T17:26:22.259Z,12.63
2019-04-01T17:28:50.253Z,12.20
2019-04-01T17:31:19.101Z,11.03
2019-04-01T17:33:48.060Z,12.07
2019-04-01T17:36:16.791Z,11.90
2019-04-01T17:38:48.102Z,11.07
2019-04-01T17:41:14.493Z,11.17
2019-04-01T17:43:43.336Z,11.20
2019-04-01T17:46:12.166Z,11.03
2019-04-01T17:48:41.778Z,11.93
2019-04-01T17:51:11.355Z,11.85
2019-04-01T17:53:40.197Z,10.20
2019-04-01T17:56:09.037Z,11.07
2019-04-01T17:58:37.871Z,11.20
2019-04-01T18:01:06.717Z,10.93
2019-04-01T18:03:35.567Z,10.67
2019-04-01T18:06:04.411Z,9.90
2019-04-01T18:08:34.218Z,11.10
2019-04-01T18:11:02.853Z,11.47
2019-04-01T18:13:31.692Z,9.57
2019-04-01T18:16:00.536Z,10.97
2019-04-01T18:18:29.387Z,12.65
2019-04-01T18:20:58.238Z,9.80
2019-04-01T18:23:27.079Z,10.37
2019-04-01T18:25:55.941Z,10.03
2019-04-01T18:28:24.797Z,9.93
2019-04-01T18:30:53.623Z,9.97
2019-04-01T18:33:23.220Z,9.40
2019-04-01T18:35:52.051Z,9.45
2019-04-01T18:38:20.896Z,11.57
2019-04-01T18:40:49.749Z,9.40
2019-04-01T18:43:18.591Z,9.10
2019-04-01T18:45:48.186Z,8.03
2019-04-01T18:48:17.033Z,9.10
2019-04-01T18:50:45.886Z,11.60
2019-04-01T18:53:14.754Z,11.00
2019-04-01T18:55:43.606Z,9.50
2019-04-01T18:58:12.457Z,9.43
2019-04-01T19:00:41.370Z,8.53
2019-04-01T19:03:10.659Z,9.60
2019-04-01T19:05:39.231Z,9.47
2019-04-01T19:08:07.824Z,10.90
2019-04-01T19:10:39.157Z,9.80
2019-04-01T19:13:07.578Z,10.00
2019-04-01T19:15:35.710Z,10.33
2019-04-01T19:18:03.253Z,9.13
2019-04-01T19:20:32.843Z,9.30
2019-04-01T19:23:02.233Z,10.13
2019-04-01T19:25:30.543Z,8.40
2019-04-01T19:28:00.133Z,8.30
2019-04-01T19:30:28.989Z,10.73
2019-04-01T19:32:57.850Z,9.30
2019-04-01T19:35:26.699Z,9.87
2019-04-01T19:37:56.366Z,9.63
2019-04-01T19:40:24.473Z,10.05
2019-04-01T19:42:53.274Z,9.90
2019-04-01T19:45:22.130Z,11.87
2019-04-01T19:47:51.001Z,11.70
2019-04-01T19:50:19.887Z,9.00
2019-04-01T19:52:48.701Z,10.17
2019-04-01T19:55:17.573Z,11.25
2019-04-01T19:57:46.417Z,11.40
2019-04-01T20:00:27.010Z,9.83
2019-04-01T20:02:44.095Z,11.03
2019-04-01T20:05:12.969Z,10.17
2019-04-01T20:07:44.079Z,10.98
2019-04-01T20:10:11.991Z,10.13
2019-04-01T20:12:41.217Z,10.63
2019-04-01T20:15:11.826Z,10.73
2019-04-01T20:17:39.583Z,9.60
2019-04-01T20:20:08.105Z,10.03
2019-04-01T20:22:36.948Z,11.10
2019-04-01T20:25:06.531Z,12.33
2019-04-01T20:27:35.451Z,9.80
2019-04-01T20:30:05.187Z,11.97
2019-04-01T20:32:34.029Z,12.03
2019-04-01T20:35:02.861Z,9.80
2019-04-01T20:37:31.720Z,11.53
2019-04-01T20:40:00.531Z,11.60
2019-04-01T20:42:29.379Z,12.30
2019-04-01T20:44:58.223Z,12.03
2019-04-01T20:47:28.482Z,12.00
2019-04-01T20:49:56.442Z,11.03
2019-04-01T20:52:25.270Z,14.48
2019-04-01T20:54:54.164Z,13.03
2019-04-01T20:57:23.015Z,13.80
2019-04-01T20:59:51.854Z,12.60
2019-04-01T21:02:20.698Z,11.63
2019-04-01T21:04:49.530Z,10.77
2019-04-01T21:07:18.686Z,10.67
2019-04-01T21:09:47.995Z,12.30
2019-04-01T21:12:16.834Z,12.23
2019-04-01T21:14:45.664Z,10.80
2019-04-01T21:17:14.522Z,10.07
2019-04-01T21:19:44.288Z,10.67
2019-04-01T21:22:12.970Z,11.40
2019-04-01T21:24:41.834Z,11.07
2019-04-01T21:27:10.673Z,12.52
2019-04-01T21:29:40.248Z,11.97
2019-04-01T21:32:09.118Z,11.93
2019-04-01T21:34:37.975Z,14.25
2019-04-01T21:37:06.819Z,12.80
2019-04-01T21:39:37.820Z,11.87
2019-04-01T21:42:05.837Z,13.35
2019-04-01T21:44:34.677Z,12.37
2019-04-01T21:47:03.555Z,13.93
2019-04-01T21:49:32.420Z,13.00
2019-04-01T21:52:02.244Z,14.13
2019-04-01T21:54:30.859Z,12.33
2019-04-01T21:56:59.697Z,13.97
2019-04-01T21:59:29.305Z,13.57
2019-04-01T22:01:58.141Z,14.00
2019-04-01T22:04:26.981Z,13.17
2019-04-01T22:06:56.551Z,13.60
2019-04-01T22:09:25.400Z,15.68
2019-04-01T22:11:54.244Z,14.37
2019-04-01T22:14:23.072Z,15.47
2019-04-01T22:16:51.985Z,15.77
2019-04-01T22:19:20.751Z,14.97
2019-04-01T22:21:49.586Z,15.07
2019-04-01T22:24:18.434Z,15.33
2019-04-01T22:26:47.276Z,15.20
2019-04-01T22:29:16.706Z,15.47
2019-04-01T22:31:45.551Z,15.47
2019-04-01T22:34:14.391Z,16.30
2019-04-01T22:36:43.236Z,16.37
2019-04-01T22:39:12.066Z,16.80
2019-04-01T22:41:41.652Z,15.97
2019-04-01T22:44:09.741Z,17.23
2019-04-01T22:46:39.326Z,17.03
2019-04-01T22:49:08.158Z,16.50
2019-04-01T22:51:37.262Z,16.37
2019-04-01T22:54:05.846Z,16.70
2019-04-01T22:56:34.710Z,17.62
2019-04-01T22:59:03.546Z,16.47
2019-04-01T23:01:32.359Z,16.43
2019-04-01T23:04:01.239Z,16.83
2019-04-01T23:06:30.074Z,16.67
2019-04-01T23:08:59.931Z,17.07
2019-04-01T23:11:27.770Z,16.83
2019-04-01T23:13:56.604Z,17.60
2019-04-01T23:16:25.452Z,16.23
2019-04-01T23:18:54.297Z,18.23
2019-04-01T23:21:23.868Z,17.90
2019-04-01T23:23:52.712Z,18.27
2019-04-01T23:26:21.560Z,17.37
2019-04-01T23:28:50.400Z,17.10
2019-04-01T23:31:19.236Z,17.40
2019-04-01T23:33:48.116Z,16.97
2019-04-01T23:36:16.973Z,17.97
2019-04-01T23:38:45.805Z,18.80
2019-04-01T23:41:14.679Z,16.80
2019-04-01T23:43:43.498Z,17.33
2019-04-01T23:46:12.342Z,17.47
2019-04-01T23:48:42.131Z,16.30
2019-04-01T23:51:10.040Z,17.83
2019-04-01T23:53:38.884Z,19.23
2019-04-01T23:56:07.718Z,17.47
2019-04-01T23:58:36.556Z,17.20
